Time;durP1;ratioP1;P1;durP2;ratioP2;P2;SDS_P1;SDS_P2;PMS_P1;PMS_P2;Temp;Humidity;BMP_temperature;BMP_pressure;BME280_temperature;BME280_humidity;BME280_pressure;Samples;Min_cycle;Max_cycle;Signal;HPM_P1;HPM_P2
2023/01/29 00:00:13;;;;;;;13.25;6.07;;;;;;;;;;8468343;28;20061;-88
2023/01/29 00:04:35;;;;;;;13.23;6.90;;;;;;;;;;8475840;28;20047;-88
2023/01/29 00:08:39;;;;;;;11.98;5.40;;;;;;;;;;8478748;28;20047;-88
2023/01/29 00:12:42;;;;;;;21.38;8.32;;;;;;;;;;8489327;28;20055;-88
2023/01/29 00:16:46;;;;;;;13.02;6.68;;;;;;;;;;8463905;28;20471;-92
2023/01/29 00:20:49;;;;;;;16.30;8.35;;;;;;;;;;8476065;28;20049;-89
2023/01/29 00:24:52;;;;;;;18.48;8.80;;;;;;;;;;8480806;27;20052;-90
2023/01/29 00:28:56;;;;;;;8.65;5.25;;;;;;;;;;8486723;27;20043;-89
2023/01/29 00:33:00;;;;;;;10.65;7.22;;;;;;;;;;8496438;27;20112;-90
2023/01/29 00:37:07;;;;;;;15.27;7.68;;;;;;;;;;8484064;27;20118;-89
2023/01/29 00:45:32;;;;;;;11.15;6.32;;;;;;;;;;8495941;27;20074;-87
2023/01/29 00:49:37;;;;;;;15.02;8.07;;;;;;;;;;8495191;27;20095;-86
2023/01/29 00:53:40;;;;;;;15.90;7.43;;;;;;;;;;8488174;27;20134;-85
2023/01/29 00:57:42;;;;;;;15.27;8.27;;;;;;;;;;8481453;27;20047;-86
2023/01/29 01:06:09;;;;;;;15.10;9.10;;;;;;;;;;8494274;27;20510;-84
2023/01/29 01:10:23;;;;;;;11.60;7.07;;;;;;;;;;8481024;27;20181;-90
2023/01/29 01:14:26;;;;;;;14.95;7.07;;;;;;;;;;8493737;27;20483;-84
2023/01/29 01:18:31;;;;;;;19.27;8.18;;;;;;;;;;8487366;27;20118;-86
2023/01/29 01:22:36;;;;;;;14.23;7.43;;;;;;;;;;8470349;27;20091;-90
2023/01/29 01:26:39;;;;;;;12.77;7.40;;;;;;;;;;8470442;27;20373;-92
2023/01/29 01:30:42;;;;;;;15.05;8.85;;;;;;;;;;8495281;27;20483;-92
2023/01/29 01:34:45;;;;;;;8.38;5.55;;;;;;;;;;8468673;27;20073;-85
2023/01/29 01:38:49;;;;;;;12.13;5.70;;;;;;;;;;8473964;27;20123;-91
2023/01/29 01:42:55;;;;;;;17.95;8.02;;;;;;;;;;8466965;28;20039;-86
2023/01/29 01:47:01;;;;;;;11.57;6.72;;;;;;;;;;8480937;27;20122;-86
2023/01/29 01:51:06;;;;;;;16.92;7.97;;;;;;;;;;8469621;27;20043;-86
2023/01/29 01:55:13;;;;;;;11.15;7.28;;;;;;;;;;8491222;27;20126;-91
2023/01/29 01:59:18;;;;;;;13.57;7.38;;;;;;;;;;8480591;27;20040;-88
2023/01/29 02:12:12;;;;;;;14.10;6.75;;;;;;;;;;8480137;27;20046;-85
2023/01/29 02:16:15;;;;;;;12.15;5.78;;;;;;;;;;8478931;27;20046;-84
2023/01/29 02:20:23;;;;;;;9.15;5.20;;;;;;;;;;8480698;27;20449;-85
2023/01/29 02:25:08;;;;;;;16.08;7.25;;;;;;;;;;8473365;27;20039;-85
2023/01/29 02:29:26;;;;;;;10.38;5.70;;;;;;;;;;8467097;27;20492;-87
2023/01/29 02:33:38;;;;;;;12.52;5.80;;;;;;;;;;8483508;27;20059;-88
2023/01/29 02:37:51;;;;;;;8.13;4.97;;;;;;;;;;8476945;27;20040;-85
2023/01/29 02:42:01;;;;;;;10.40;4.30;;;;;;;;;;8486150;27;20130;-85
2023/01/29 02:46:12;;;;;;;6.13;4.10;;;;;;;;;;8473268;27;20490;-84
2023/01/29 02:50:21;;;;;;;6.65;3.92;;;;;;;;;;8476493;27;20074;-90
2023/01/29 02:54:30;;;;;;;9.27;5.65;;;;;;;;;;8471695;27;20075;-87
2023/01/29 02:58:38;;;;;;;10.15;5.20;;;;;;;;;;8478058;27;20495;-86
2023/01/29 03:02:48;;;;;;;7.20;3.67;;;;;;;;;;8494704;27;20076;-85
2023/01/29 03:06:55;;;;;;;7.72;4.28;;;;;;;;;;8486082;27;20067;-88
2023/01/29 03:11:02;;;;;;;10.43;4.68;;;;;;;;;;8477376;27;20039;-85
2023/01/29 03:15:13;;;;;;;9.50;4.75;;;;;;;;;;8484544;27;20053;-86
2023/01/29 03:19:20;;;;;;;8.40;4.00;;;;;;;;;;8492545;27;20047;-86
2023/01/29 03:32:08;;;;;;;7.88;4.22;;;;;;;;;;8388724;28;20061;-85
2023/01/29 03:36:16;;;;;;;8.50;4.10;;;;;;;;;;8392216;28;20075;-85
2023/01/29 03:40:19;;;;;;;11.00;4.40;;;;;;;;;;8384478;28;20052;-85
2023/01/29 03:44:33;;;;;;;8.30;4.55;;;;;;;;;;8387891;28;20147;-86
2023/01/29 03:48:39;;;;;;;7.45;4.40;;;;;;;;;;8387849;28;20065;-84
2023/01/29 03:52:50;;;;;;;19.30;8.15;;;;;;;;;;8455619;28;20517;-86
2023/01/29 03:57:00;;;;;;;10.98;6.30;;;;;;;;;;8476377;28;20376;-85
2023/01/29 04:01:08;;;;;;;10.15;4.53;;;;;;;;;;8476863;27;20044;-86
2023/01/29 04:05:17;;;;;;;21.95;12.05;;;;;;;;;;8477509;27;20043;-86
2023/01/29 04:09:25;;;;;;;10.60;6.25;;;;;;;;;;8483378;27;20043;-87
2023/01/29 04:13:32;;;;;;;5.40;3.28;;;;;;;;;;8501222;27;20163;-85
2023/01/29 04:17:39;;;;;;;13.20;7.90;;;;;;;;;;8489582;27;20087;-90
2023/01/29 04:21:42;;;;;;;6.07;3.95;;;;;;;;;;8484477;27;20039;-86
2023/01/29 04:25:53;;;;;;;7.28;4.47;;;;;;;;;;8486035;27;20047;-87
2023/01/29 04:30:07;;;;;;;7.45;3.47;;;;;;;;;;8481297;27;20035;-85
2023/01/29 04:34:19;;;;;;;9.68;5.28;;;;;;;;;;8477380;27;20049;-86
2023/01/29 04:38:32;;;;;;;9.48;4.63;;;;;;;;;;8475965;27;20122;-85
2023/01/29 04:42:44;;;;;;;6.35;3.88;;;;;;;;;;8484130;27;20391;-85
2023/01/29 04:46:52;;;;;;;24.73;9.52;;;;;;;;;;8483951;27;20501;-84
2023/01/29 04:50:59;;;;;;;8.43;3.40;;;;;;;;;;8474215;27;20077;-83
2023/01/29 04:55:07;;;;;;;12.60;8.38;;;;;;;;;;8492272;27;20040;-92
2023/01/29 04:59:15;;;;;;;9.60;5.85;;;;;;;;;;8469625;27;20035;-84
2023/01/29 05:03:18;;;;;;;7.75;4.93;;;;;;;;;;8487659;27;20429;-84
2023/01/29 05:07:23;;;;;;;10.63;6.47;;;;;;;;;;8490142;27;20050;-84
2023/01/29 05:11:27;;;;;;;10.63;5.22;;;;;;;;;;8479734;27;20491;-85
2023/01/29 05:15:36;;;;;;;6.57;4.35;;;;;;;;;;8475597;27;20070;-86
2023/01/29 05:19:39;;;;;;;8.65;5.13;;;;;;;;;;8487740;27;20050;-88
2023/01/29 05:23:51;;;;;;;8.50;4.72;;;;;;;;;;8473813;27;20505;-86
2023/01/29 05:28:04;;;;;;;7.30;4.10;;;;;;;;;;8475071;27;20376;-85
2023/01/29 05:32:08;;;;;;;10.60;3.97;;;;;;;;;;8448560;28;20062;-85
2023/01/29 05:36:11;;;;;;;5.65;3.60;;;;;;;;;;8482128;27;20096;-90
2023/01/29 05:40:14;;;;;;;7.00;3.83;;;;;;;;;;8477725;27;20418;-83
2023/01/29 05:44:16;;;;;;;7.78;4.30;;;;;;;;;;8483075;27;20039;-88
2023/01/29 05:48:21;;;;;;;6.93;3.80;;;;;;;;;;8492217;27;20049;-85
2023/01/29 05:52:24;;;;;;;6.97;4.25;;;;;;;;;;8482030;27;20043;-88
2023/01/29 05:56:27;;;;;;;8.93;4.93;;;;;;;;;;8466738;27;20051;-83
2023/01/29 06:00:29;;;;;;;9.30;4.82;;;;;;;;;;8481287;27;20044;-89
2023/01/29 06:04:34;;;;;;;10.20;5.30;;;;;;;;;;8485972;27;20425;-90
2023/01/29 06:08:37;;;;;;;6.63;3.90;;;;;;;;;;8485045;27;20411;-89
2023/01/29 06:12:40;;;;;;;9.98;5.03;;;;;;;;;;8486942;27;20040;-90
2023/01/29 06:16:43;;;;;;;9.88;5.70;;;;;;;;;;8493149;27;20039;-92
2023/01/29 06:20:47;;;;;;;12.82;5.80;;;;;;;;;;8478356;27;20047;-84
2023/01/29 06:24:50;;;;;;;16.70;7.85;;;;;;;;;;8481117;27;20040;-88
2023/01/29 06:28:53;;;;;;;16.35;8.20;;;;;;;;;;8481042;27;20129;-87
2023/01/29 06:32:57;;;;;;;19.00;11.10;;;;;;;;;;8483633;27;20528;-89
2023/01/29 06:37:01;;;;;;;18.23;9.50;;;;;;;;;;8477200;27;20122;-85
2023/01/29 06:41:09;;;;;;;14.20;8.68;;;;;;;;;;8494835;27;20039;-83
2023/01/29 06:45:12;;;;;;;14.13;7.50;;;;;;;;;;8483119;27;20079;-89
2023/01/29 06:49:15;;;;;;;18.60;8.38;;;;;;;;;;8466817;27;20487;-84
2023/01/29 06:53:19;;;;;;;10.43;5.25;;;;;;;;;;8475187;27;20478;-92
2023/01/29 06:57:22;;;;;;;11.18;5.13;;;;;;;;;;8493485;27;20047;-86
2023/01/29 07:01:25;;;;;;;12.30;7.13;;;;;;;;;;8485869;27;20047;-85
2023/01/29 07:05:28;;;;;;;11.98;5.20;;;;;;;;;;8475586;27;20039;-89
2023/01/29 07:09:33;;;;;;;4.18;2.47;;;;;;;;;;8476958;27;20379;-86
2023/01/29 07:13:36;;;;;;;20.60;5.88;;;;;;;;;;8478954;27;20220;-85
2023/01/29 07:17:39;;;;;;;13.13;5.88;;;;;;;;;;8479226;27;20554;-84
2023/01/29 07:21:42;;;;;;;14.98;6.32;;;;;;;;;;8469547;27;20047;-84
2023/01/29 07:25:48;;;;;;;16.73;8.00;;;;;;;;;;8483162;28;20067;-85
2023/01/29 07:29:51;;;;;;;15.25;7.50;;;;;;;;;;8464692;28;20673;-88
2023/01/29 07:33:54;;;;;;;9.45;5.10;;;;;;;;;;8474187;27;20052;-83
2023/01/29 07:38:00;;;;;;;13.68;5.30;;;;;;;;;;8464293;27;20043;-84
2023/01/29 07:42:04;;;;;;;10.75;5.47;;;;;;;;;;8475730;27;20123;-85
2023/01/29 07:46:07;;;;;;;14.13;6.55;;;;;;;;;;8482698;27;20490;-87
2023/01/29 07:50:13;;;;;;;9.38;5.78;;;;;;;;;;8484432;27;20047;-93
2023/01/29 07:54:16;;;;;;;17.35;8.90;;;;;;;;;;8482283;27;20697;-94
2023/01/29 07:58:23;;;;;;;21.00;10.82;;;;;;;;;;8483921;27;20055;-86
2023/01/29 08:02:26;;;;;;;15.35;6.43;;;;;;;;;;8498040;27;20047;-87
2023/01/29 08:06:29;;;;;;;14.13;7.18;;;;;;;;;;8475627;27;20050;-91
2023/01/29 08:10:32;;;;;;;12.07;5.95;;;;;;;;;;8472079;27;20051;-90
2023/01/29 08:14:37;;;;;;;12.30;6.80;;;;;;;;;;8470396;27;20043;-89
2023/01/29 08:18:46;;;;;;;12.82;6.45;;;;;;;;;;8492190;27;20122;-87
2023/01/29 08:22:50;;;;;;;18.58;8.60;;;;;;;;;;8487021;27;20465;-88
2023/01/29 08:26:54;;;;;;;15.48;7.57;;;;;;;;;;8458697;27;20510;-87
2023/01/29 08:30:58;;;;;;;9.77;5.50;;;;;;;;;;8475110;27;20061;-91
2023/01/29 08:35:02;;;;;;;24.50;10.70;;;;;;;;;;8477292;27;20585;-87
2023/01/29 08:39:05;;;;;;;19.38;9.65;;;;;;;;;;8487689;27;20047;-86
2023/01/29 08:43:12;;;;;;;13.82;6.60;;;;;;;;;;8458109;27;20120;-88
2023/01/29 08:47:17;;;;;;;16.88;7.75;;;;;;;;;;8482937;27;20047;-87
2023/01/29 08:51:21;;;;;;;21.02;10.52;;;;;;;;;;8472944;27;20062;-88
2023/01/29 08:55:25;;;;;;;12.30;5.03;;;;;;;;;;8488403;27;20068;-94
2023/01/29 08:59:28;;;;;;;27.08;12.40;;;;;;;;;;8475746;27;20110;-88
2023/01/29 09:03:33;;;;;;;15.02;7.22;;;;;;;;;;8478813;27;20055;-86
2023/01/29 09:07:36;;;;;;;24.17;10.95;;;;;;;;;;8472449;27;20423;-87
2023/01/29 09:11:39;;;;;;;12.05;6.65;;;;;;;;;;8494000;27;20169;-93
2023/01/29 09:15:42;;;;;;;14.73;7.10;;;;;;;;;;8471457;27;20131;-88
2023/01/29 09:19:46;;;;;;;10.10;6.18;;;;;;;;;;8480061;27;20043;-88
2023/01/29 09:23:51;;;;;;;13.45;6.65;;;;;;;;;;8480580;27;20704;-92
2023/01/29 09:27:54;;;;;;;11.95;6.22;;;;;;;;;;8483423;27;20071;-88
2023/01/29 09:31:58;;;;;;;19.08;8.43;;;;;;;;;;8471027;27;20058;-91
2023/01/29 09:36:05;;;;;;;15.02;7.35;;;;;;;;;;8470738;27;20413;-88
2023/01/29 09:40:23;;;;;;;13.75;6.72;;;;;;;;;;8473434;27;20046;-86
2023/01/29 09:44:46;;;;;;;15.90;7.57;;;;;;;;;;8478855;27;20518;-87
2023/01/29 09:49:04;;;;;;;8.45;4.53;;;;;;;;;;8477561;27;20047;-90
2023/01/29 09:53:19;;;;;;;16.73;8.65;;;;;;;;;;8479077;27;20047;-88
2023/01/29 09:57:32;;;;;;;11.68;5.88;;;;;;;;;;8466470;27;20114;-90
2023/01/29 10:01:46;;;;;;;10.30;5.38;;;;;;;;;;8466418;27;20484;-88
2023/01/29 10:06:19;;;;;;;12.90;6.47;;;;;;;;;;8480362;27;20491;-90
2023/01/29 10:10:36;;;;;;;11.77;6.93;;;;;;;;;;8465716;27;20804;-89
2023/01/29 10:14:49;;;;;;;16.58;7.25;;;;;;;;;;8471375;27;20122;-89
2023/01/29 10:19:32;;;;;;;11.88;6.45;;;;;;;;;;8477022;27;20406;-90
2023/01/29 10:23:40;;;;;;;14.35;7.30;;;;;;;;;;8467048;27;20045;-90
2023/01/29 10:27:49;;;;;;;13.85;6.85;;;;;;;;;;8474613;27;20040;-89
2023/01/29 10:31:58;;;;;;;9.80;5.13;;;;;;;;;;8475459;27;20047;-89
2023/01/29 10:36:04;;;;;;;5.43;2.95;;;;;;;;;;8473998;27;20039;-88
2023/01/29 10:40:23;;;;;;;9.13;5.20;;;;;;;;;;8468714;27;20044;-90
2023/01/29 10:44:38;;;;;;;12.18;5.75;;;;;;;;;;8450764;27;20066;-89
2023/01/29 10:48:57;;;;;;;20.30;9.38;;;;;;;;;;8476402;27;20046;-87
2023/01/29 10:53:16;;;;;;;21.60;10.40;;;;;;;;;;8477175;27;20433;-88
2023/01/29 10:57:31;;;;;;;14.80;7.28;;;;;;;;;;8472320;27;20078;-89
2023/01/29 11:01:36;;;;;;;19.85;10.32;;;;;;;;;;8462951;27;20044;-89
2023/01/29 11:05:50;;;;;;;14.23;7.05;;;;;;;;;;8465707;27;20051;-88
2023/01/29 11:10:01;;;;;;;13.25;6.95;;;;;;;;;;8473153;27;20147;-87
2023/01/29 11:14:09;;;;;;;7.90;5.20;;;;;;;;;;8459265;28;20131;-88
2023/01/29 11:18:16;;;;;;;11.43;5.07;;;;;;;;;;8476731;27;20090;-89
2023/01/29 11:22:22;;;;;;;14.15;5.82;;;;;;;;;;8470747;27;20062;-88
2023/01/29 11:26:25;;;;;;;13.60;7.40;;;;;;;;;;8478597;28;20048;-89
2023/01/29 11:30:32;;;;;;;15.32;7.78;;;;;;;;;;8476122;28;20430;-89
2023/01/29 11:34:57;;;;;;;9.60;5.13;;;;;;;;;;8466794;28;20108;-89
2023/01/29 11:39:13;;;;;;;18.60;7.72;;;;;;;;;;8475646;28;20039;-91
2023/01/29 11:43:23;;;;;;;9.65;4.50;;;;;;;;;;8489873;28;20441;-85
2023/01/29 11:47:30;;;;;;;15.15;6.30;;;;;;;;;;8468445;28;20050;-87
2023/01/29 11:51:38;;;;;;;15.20;5.65;;;;;;;;;;8461430;28;20057;-90
2023/01/29 11:55:48;;;;;;;12.77;6.38;;;;;;;;;;8479670;28;20388;-89
2023/01/29 11:59:53;;;;;;;8.38;4.93;;;;;;;;;;8464863;28;20059;-88
2023/01/29 12:03:57;;;;;;;14.95;6.82;;;;;;;;;;8481156;28;20039;-88
2023/01/29 12:08:04;;;;;;;21.70;7.63;;;;;;;;;;8485814;28;20050;-92
2023/01/29 12:12:26;;;;;;;16.92;7.28;;;;;;;;;;8494996;28;20054;-90
2023/01/29 12:16:33;;;;;;;15.00;6.55;;;;;;;;;;8490254;28;20459;-92
2023/01/29 12:20:41;;;;;;;9.13;4.82;;;;;;;;;;8484010;27;20128;-93
2023/01/29 12:24:52;;;;;;;21.38;8.52;;;;;;;;;;8493265;27;20694;-92
2023/01/29 12:29:17;;;;;;;14.82;7.07;;;;;;;;;;8491632;27;20043;-90
2023/01/29 12:33:29;;;;;;;18.30;7.78;;;;;;;;;;8495699;27;20055;-91
2023/01/29 12:37:41;;;;;;;8.77;4.75;;;;;;;;;;8490657;27;20043;-92
2023/01/29 12:41:51;;;;;;;15.18;8.10;;;;;;;;;;8501529;27;20047;-91
2023/01/29 12:45:58;;;;;;;13.32;6.90;;;;;;;;;;8486798;27;20095;-90
2023/01/29 12:50:05;;;;;;;15.57;7.22;;;;;;;;;;8480352;27;20038;-94
2023/01/29 12:54:15;;;;;;;13.95;6.68;;;;;;;;;;8481858;27;20428;-87
2023/01/29 12:58:27;;;;;;;15.98;7.65;;;;;;;;;;8481489;27;20143;-88
2023/01/29 13:02:35;;;;;;;20.98;9.23;;;;;;;;;;8481282;27;20472;-86
2023/01/29 13:06:44;;;;;;;21.27;8.90;;;;;;;;;;8483432;27;20406;-85
2023/01/29 13:10:54;;;;;;;12.45;6.57;;;;;;;;;;8480299;27;20051;-95
2023/01/29 13:15:23;;;;;;;17.55;8.45;;;;;;;;;;8508042;27;20058;-82
2023/01/29 13:19:33;;;;;;;18.23;8.70;;;;;;;;;;8500704;27;20060;-82
2023/01/29 13:23:43;;;;;;;17.88;9.25;;;;;;;;;;8463415;28;20047;-82
2023/01/29 13:27:57;;;;;;;16.30;7.57;;;;;;;;;;8488141;27;20411;-81
2023/01/29 13:32:24;;;;;;;17.33;7.70;;;;;;;;;;8497658;27;20219;-81
2023/01/29 13:36:32;;;;;;;8.13;4.53;;;;;;;;;;8462635;27;20047;-82
2023/01/29 13:40:40;;;;;;;18.30;10.23;;;;;;;;;;8456218;27;20502;-82
2023/01/29 13:44:51;;;;;;;29.60;13.38;;;;;;;;;;8480287;27;20043;-82
2023/01/29 13:49:26;;;;;;;14.05;7.53;;;;;;;;;;8497680;27;20047;-83
2023/01/29 13:53:37;;;;;;;16.67;8.98;;;;;;;;;;8462127;28;20052;-81
2023/01/29 13:57:52;;;;;;;26.40;13.48;;;;;;;;;;8481233;28;20046;-86
2023/01/29 14:02:20;;;;;;;21.20;10.40;;;;;;;;;;8462289;28;20051;-81
2023/01/29 14:06:42;;;;;;;21.00;11.70;;;;;;;;;;8505269;27;20046;-83
2023/01/29 14:11:30;;;;;;;20.20;11.65;;;;;;;;;;8487973;27;20544;-83
2023/01/29 14:15:35;;;;;;;17.45;8.15;;;;;;;;;;8512362;27;20067;-81
2023/01/29 14:19:47;;;;;;;16.20;7.28;;;;;;;;;;8487856;28;20067;-83
2023/01/29 14:24:03;;;;;;;18.38;10.55;;;;;;;;;;8512614;27;20058;-82
2023/01/29 14:28:35;;;;;;;16.98;9.20;;;;;;;;;;8512072;27;20048;-82
2023/01/29 14:33:05;;;;;;;11.73;6.28;;;;;;;;;;8393591;28;20064;-82
2023/01/29 14:37:25;;;;;;;19.90;9.40;;;;;;;;;;8358521;28;20126;-82
2023/01/29 14:41:39;;;;;;;22.58;9.77;;;;;;;;;;8356867;28;20429;-83
2023/01/29 14:45:45;;;;;;;22.17;10.25;;;;;;;;;;8353544;28;20168;-82
2023/01/29 14:49:57;;;;;;;19.60;8.73;;;;;;;;;;8358438;28;20051;-87
2023/01/29 14:54:13;;;;;;;17.50;9.57;;;;;;;;;;8340119;28;20107;-82
2023/01/29 14:58:22;;;;;;;16.15;8.00;;;;;;;;;;8324665;28;20084;-86
2023/01/29 15:02:36;;;;;;;20.42;8.68;;;;;;;;;;8340571;28;20063;-86
2023/01/29 15:06:49;;;;;;;27.67;13.10;;;;;;;;;;8346106;28;20080;-85
2023/01/29 15:15:18;;;;;;;29.95;15.10;;;;;;;;;;8383919;28;20143;-85
2023/01/29 15:19:28;;;;;;;13.40;7.20;;;;;;;;;;8401352;28;20523;-84
2023/01/29 15:23:34;;;;;;;23.10;11.95;;;;;;;;;;8426924;28;20099;-83
2023/01/29 15:27:42;;;;;;;9.90;5.35;;;;;;;;;;8445487;28;20058;-82
2023/01/29 15:31:50;;;;;;;23.75;12.93;;;;;;;;;;8482111;28;20058;-81
2023/01/29 15:35:59;;;;;;;34.30;15.63;;;;;;;;;;8471663;28;20483;-80
2023/01/29 15:40:12;;;;;;;24.05;12.55;;;;;;;;;;8490469;28;20059;-84
2023/01/29 15:49:44;;;;;;;26.15;12.63;;;;;;;;;;8484584;28;20046;-93
2023/01/29 15:54:16;;;;;;;16.27;8.13;;;;;;;;;;8485819;27;20047;-84
2023/01/29 15:59:03;;;;;;;11.15;4.88;;;;;;;;;;8474114;28;20062;-82
2023/01/29 16:03:43;;;;;;;19.02;9.18;;;;;;;;;;8498599;27;20067;-89
2023/01/29 16:08:17;;;;;;;12.83;4.60;;;;;;;;;;8508160;27;20051;-82
2023/01/29 16:12:25;;;;;;;21.08;10.05;;;;;;;;;;8499457;27;20039;-88
2023/01/29 16:16:49;;;;;;;24.27;11.27;;;;;;;;;;8459954;27;20066;-87
2023/01/29 16:20:54;;;;;;;16.42;7.00;;;;;;;;;;8473514;27;20462;-91
2023/01/29 16:25:02;;;;;;;35.35;15.77;;;;;;;;;;8478255;27;20383;-87
2023/01/29 16:29:10;;;;;;;28.48;12.70;;;;;;;;;;8472745;27;20067;-93
2023/01/29 16:33:20;;;;;;;33.78;13.95;;;;;;;;;;8471807;27;20064;-84
2023/01/29 16:37:29;;;;;;;31.85;13.57;;;;;;;;;;8432154;27;20070;-91
2023/01/29 16:41:37;;;;;;;13.70;5.03;;;;;;;;;;8478219;27;20039;-85
2023/01/29 16:45:42;;;;;;;22.42;10.68;;;;;;;;;;8491210;27;20039;-84
2023/01/29 16:49:53;;;;;;;30.02;13.15;;;;;;;;;;8482290;27;20062;-85
2023/01/29 16:54:11;;;;;;;17.92;9.43;;;;;;;;;;8477573;27;20479;-86
2023/01/29 16:58:18;;;;;;;29.33;13.20;;;;;;;;;;8473901;27;20506;-88
2023/01/29 17:02:32;;;;;;;25.35;11.95;;;;;;;;;;8486609;27;20127;-88
2023/01/29 17:06:42;;;;;;;27.00;11.73;;;;;;;;;;8474639;27;20080;-87
2023/01/29 17:10:52;;;;;;;24.33;11.35;;;;;;;;;;8484848;27;20130;-92
2023/01/29 17:15:06;;;;;;;23.77;11.98;;;;;;;;;;8470492;27;20052;-86
2023/01/29 17:19:24;;;;;;;27.40;13.73;;;;;;;;;;8480415;27;20132;-86
2023/01/29 17:23:42;;;;;;;18.80;9.63;;;;;;;;;;8474411;27;20043;-88
2023/01/29 17:27:56;;;;;;;20.88;10.93;;;;;;;;;;8467916;27;20040;-88
2023/01/29 17:32:07;;;;;;;37.63;15.88;;;;;;;;;;8483694;27;20061;-89
2023/01/29 17:36:14;;;;;;;22.70;10.52;;;;;;;;;;8494771;27;20035;-92
2023/01/29 17:40:30;;;;;;;18.27;9.38;;;;;;;;;;8485962;27;20122;-92
2023/01/29 17:44:37;;;;;;;16.45;7.38;;;;;;;;;;8471360;27;20134;-89
2023/01/29 17:48:43;;;;;;;27.23;11.40;;;;;;;;;;8474644;27;20399;-87
2023/01/29 17:52:48;;;;;;;30.85;14.85;;;;;;;;;;8475786;27;20052;-89
2023/01/29 17:56:58;;;;;;;31.48;14.32;;;;;;;;;;8465516;28;20043;-87
2023/01/29 18:01:02;;;;;;;29.13;13.52;;;;;;;;;;8484204;27;20066;-91
2023/01/29 18:05:07;;;;;;;31.05;12.93;;;;;;;;;;8471440;27;20043;-86
2023/01/29 18:09:14;;;;;;;31.30;14.98;;;;;;;;;;8464950;28;20303;-90
2023/01/29 18:13:19;;;;;;;34.60;14.35;;;;;;;;;;8488543;27;20047;-86
2023/01/29 18:17:24;;;;;;;35.97;17.38;;;;;;;;;;8478622;27;20491;-86
2023/01/29 18:21:28;;;;;;;25.92;12.50;;;;;;;;;;8446292;28;20054;-91
2023/01/29 18:25:34;;;;;;;28.67;12.13;;;;;;;;;;8479219;27;20126;-91
2023/01/29 18:29:42;;;;;;;41.28;16.75;;;;;;;;;;8453143;27;20042;-85
2023/01/29 18:33:51;;;;;;;32.15;14.43;;;;;;;;;;8466112;27;20135;-91
2023/01/29 18:37:56;;;;;;;33.75;13.65;;;;;;;;;;8481826;27;20411;-91
2023/01/29 18:42:04;;;;;;;17.25;8.85;;;;;;;;;;8473559;27;20122;-85
2023/01/29 18:46:11;;;;;;;29.90;13.43;;;;;;;;;;8484398;27;20043;-85
2023/01/29 18:50:17;;;;;;;20.45;11.00;;;;;;;;;;8477511;27;20043;-87
2023/01/29 18:54:25;;;;;;;17.15;8.40;;;;;;;;;;8472183;27;20048;-90
2023/01/29 18:58:32;;;;;;;20.83;10.45;;;;;;;;;;8468278;27;20043;-91
2023/01/29 19:02:44;;;;;;;19.83;10.25;;;;;;;;;;8469364;27;20088;-92
2023/01/29 19:06:50;;;;;;;24.88;11.07;;;;;;;;;;8474965;27;20130;-85
2023/01/29 19:10:56;;;;;;;30.23;13.43;;;;;;;;;;8471068;27;20602;-85
2023/01/29 19:15:01;;;;;;;27.20;12.10;;;;;;;;;;8470737;27;20040;-88
2023/01/29 19:19:11;;;;;;;32.40;14.77;;;;;;;;;;8488611;27;20043;-88
2023/01/29 19:23:16;;;;;;;25.45;12.60;;;;;;;;;;8481730;27;20097;-88
2023/01/29 19:27:22;;;;;;;32.78;13.57;;;;;;;;;;8480873;28;20048;-88
2023/01/29 19:31:30;;;;;;;34.88;15.25;;;;;;;;;;8482364;27;20050;-91
2023/01/29 19:35:47;;;;;;;18.90;9.35;;;;;;;;;;8444846;28;20385;-88
2023/01/29 19:39:55;;;;;;;30.50;14.07;;;;;;;;;;8443057;28;20032;-85
2023/01/29 19:44:01;;;;;;;35.95;16.17;;;;;;;;;;8454203;28;20157;-89
2023/01/29 19:48:06;;;;;;;26.33;12.43;;;;;;;;;;8460258;28;20059;-92
2023/01/29 19:52:32;;;;;;;34.00;15.38;;;;;;;;;;8453959;27;20048;-88
2023/01/29 19:56:43;;;;;;;27.00;11.65;;;;;;;;;;8455270;28;20047;-89
2023/01/29 20:00:56;;;;;;;35.83;13.93;;;;;;;;;;8447810;27;20181;-89
2023/01/29 20:05:04;;;;;;;46.33;17.33;;;;;;;;;;8439631;27;20043;-88
2023/01/29 20:09:11;;;;;;;28.92;13.82;;;;;;;;;;8444328;27;20040;-93
2023/01/29 20:13:19;;;;;;;27.70;12.45;;;;;;;;;;8450190;27;20115;-89
2023/01/29 20:17:25;;;;;;;31.17;13.32;;;;;;;;;;8436420;27;20048;-85
2023/01/29 20:21:31;;;;;;;38.42;14.00;;;;;;;;;;8441721;27;20392;-84
2023/01/29 20:25:42;;;;;;;26.40;10.90;;;;;;;;;;8439939;27;20040;-85
2023/01/29 20:29:50;;;;;;;28.65;12.32;;;;;;;;;;8441988;27;20510;-90
2023/01/29 20:33:54;;;;;;;25.35;10.38;;;;;;;;;;8453567;27;20062;-85
2023/01/29 20:37:59;;;;;;;36.88;15.27;;;;;;;;;;8482180;27;20479;-86
2023/01/29 20:42:06;;;;;;;28.77;12.75;;;;;;;;;;8485151;27;20038;-84
2023/01/29 20:46:11;;;;;;;20.52;10.80;;;;;;;;;;8489615;27;20039;-84
2023/01/29 20:50:18;;;;;;;23.30;10.80;;;;;;;;;;8489394;27;20131;-91
2023/01/29 20:54:23;;;;;;;32.75;13.88;;;;;;;;;;8475680;27;20066;-92
2023/01/29 20:58:30;;;;;;;22.48;10.93;;;;;;;;;;8481218;27;20054;-90
2023/01/29 21:02:34;;;;;;;28.02;13.38;;;;;;;;;;8496210;27;20043;-89
2023/01/29 21:06:40;;;;;;;28.77;12.63;;;;;;;;;;8495049;27;20042;-89
2023/01/29 21:10:45;;;;;;;28.02;12.32;;;;;;;;;;8483112;27;20066;-84
2023/01/29 21:14:51;;;;;;;25.05;10.95;;;;;;;;;;8480188;27;20071;-88
2023/01/29 21:18:58;;;;;;;20.63;9.80;;;;;;;;;;8468343;28;20051;-87
2023/01/29 21:23:03;;;;;;;21.17;10.23;;;;;;;;;;8481869;27;20051;-90
2023/01/29 21:27:11;;;;;;;20.35;10.38;;;;;;;;;;8468230;27;20075;-88
2023/01/29 21:31:20;;;;;;;25.05;11.55;;;;;;;;;;8472577;27;20063;-83
2023/01/29 21:35:23;;;;;;;27.77;9.50;;;;;;;;;;8489285;27;20128;-84
2023/01/29 21:39:28;;;;;;;18.38;9.32;;;;;;;;;;8500054;27;20050;-87
2023/01/29 21:43:30;;;;;;;23.83;11.20;;;;;;;;;;8449940;27;20495;-90
2023/01/29 21:47:35;;;;;;;28.10;12.23;;;;;;;;;;8499296;27;20047;-85
2023/01/29 21:51:40;;;;;;;27.42;11.45;;;;;;;;;;8500131;27;20043;-87
2023/01/29 21:55:43;;;;;;;23.30;10.98;;;;;;;;;;8481798;27;20044;-89
2023/01/29 21:59:46;;;;;;;20.85;9.02;;;;;;;;;;8492830;27;20047;-84
2023/01/29 22:03:51;;;;;;;28.25;11.35;;;;;;;;;;8487010;27;20050;-86
2023/01/29 22:07:54;;;;;;;21.55;9.25;;;;;;;;;;8487384;27;20054;-85
2023/01/29 22:11:57;;;;;;;21.10;10.98;;;;;;;;;;8493617;27;20092;-83
2023/01/29 22:16:01;;;;;;;23.55;11.27;;;;;;;;;;8479795;27;20487;-85
2023/01/29 22:20:07;;;;;;;23.15;9.90;;;;;;;;;;8470773;27;20048;-87
2023/01/29 22:24:10;;;;;;;25.25;10.88;;;;;;;;;;8479823;27;20044;-84
2023/01/29 22:28:15;;;;;;;17.75;8.15;;;;;;;;;;8480545;27;20073;-87
2023/01/29 22:32:18;;;;;;;27.63;11.65;;;;;;;;;;8479005;27;20099;-91
2023/01/29 22:36:22;;;;;;;25.83;10.45;;;;;;;;;;8465746;28;20389;-85
2023/01/29 22:40:25;;;;;;;21.23;9.98;;;;;;;;;;8478800;27;20586;-84
2023/01/29 22:44:28;;;;;;;23.58;8.77;;;;;;;;;;8492445;27;20499;-84
2023/01/29 22:48:31;;;;;;;19.10;9.32;;;;;;;;;;8492947;27;20046;-84
2023/01/29 22:52:38;;;;;;;25.08;10.98;;;;;;;;;;8499322;27;20479;-86
2023/01/29 22:56:41;;;;;;;20.58;9.48;;;;;;;;;;8498585;27;20039;-85
2023/01/29 23:00:44;;;;;;;20.13;10.15;;;;;;;;;;8467913;27;20059;-88
2023/01/29 23:04:47;;;;;;;28.15;12.32;;;;;;;;;;8497839;27;20050;-86
2023/01/29 23:08:51;;;;;;;26.23;12.68;;;;;;;;;;8478304;27;20099;-85
2023/01/29 23:12:54;;;;;;;22.63;10.10;;;;;;;;;;8478478;27;20441;-85
2023/01/29 23:16:57;;;;;;;23.65;11.98;;;;;;;;;;8464826;28;20039;-89
2023/01/29 23:21:00;;;;;;;26.52;11.13;;;;;;;;;;8492061;27;20134;-85
2023/01/29 23:25:06;;;;;;;25.63;11.43;;;;;;;;;;8485129;27;20066;-91
2023/01/29 23:29:09;;;;;;;28.40;12.13;;;;;;;;;;8470883;28;20044;-89
2023/01/29 23:33:12;;;;;;;15.07;5.40;;;;;;;;;;8464462;28;20131;-86
2023/01/29 23:37:15;;;;;;;29.95;12.13;;;;;;;;;;8464039;28;20046;-90
2023/01/29 23:41:20;;;;;;;29.00;11.52;;;;;;;;;;8485379;28;20043;-84
2023/01/29 23:45:23;;;;;;;25.33;11.43;;;;;;;;;;8484630;28;20414;-87
2023/01/29 23:49:26;;;;;;;26.58;10.90;;;;;;;;;;8476937;28;20050;-85
2023/01/29 23:53:29;;;;;;;23.58;10.98;;;;;;;;;;8478852;28;20126;-90
2023/01/29 23:57:33;;;;;;;24.02;10.80;;;;;;;;;;8476392;28;20069;-85
